Time;durP1;ratioP1;P1;durP2;ratioP2;P2;SDS_P1;SDS_P2;PMS_P1;PMS_P2;Temp;Humidity;BMP_temperature;BMP_pressure;BME280_temperature;BME280_humidity;BME280_pressure;Samples;Min_cycle;Max_cycle;Signal;HPM_P1;HPM_P2
2023/06/02 00:01:20;;;;;;;10.57;7.82;;;;;;;-144.30;77.58;85082.34;5133937;27;20204;-57
2023/06/02 00:03:48;;;;;;;10.45;7.95;;;;;;;-144.30;77.71;85076.38;5134065;27;20663;-58
2023/06/02 00:06:18;;;;;;;10.60;7.30;;;;;;;-144.30;78.19;85112.16;5133821;27;20282;-58
2023/06/02 00:08:45;;;;;;;9.38;8.00;;;;;;;-144.30;78.40;85086.31;5134048;27;20605;-58
2023/06/02 00:11:13;;;;;;;9.30;8.00;;;;;;;-144.30;78.16;85104.22;5134177;27;20627;-59
2023/06/02 00:13:41;;;;;;;10.13;8.05;;;;;;;-144.30;78.59;85044.59;5133851;27;20204;-57
2023/06/02 00:16:08;;;;;;;9.85;7.80;;;;;;;-144.30;78.83;85642.94;5133271;27;20713;-57
2023/06/02 00:18:37;;;;;;;8.50;7.80;;;;;;;-144.30;80.01;85096.25;5133703;27;20198;-58
2023/06/02 00:21:06;;;;;;;8.45;7.65;;;;;;;-144.30;80.43;85072.41;5133623;27;20645;-57
2023/06/02 00:23:35;;;;;;;9.45;8.55;;;;;;;-144.30;80.25;85126.09;5133717;27;20216;-57
2023/06/02 00:26:03;;;;;;;8.45;7.65;;;;;;;-144.30;79.88;85140.00;5133549;27;20217;-57
2023/06/02 00:28:30;;;;;;;8.52;7.80;;;;;;;-144.30;79.79;85110.19;5133275;27;20222;-57
2023/06/02 00:30:57;;;;;;;11.18;7.53;;;;;;;-144.30;80.05;85100.25;5133413;27;20299;-57
2023/06/02 00:33:23;;;;;;;10.63;8.00;;;;;;;-144.30;79.83;85110.19;5133286;27;20590;-56
2023/06/02 00:35:50;;;;;;;11.10;8.05;;;;;;;-144.30;80.25;85159.88;5133087;27;20205;-56
2023/06/02 00:38:17;;;;;;;9.05;8.25;;;;;;;-144.30;80.96;85169.81;5133129;27;20194;-56
2023/06/02 00:40:45;;;;;;;9.50;8.23;;;;;;;-144.30;81.14;85138.00;5133185;27;20284;-58
2023/06/02 00:43:12;;;;;;;9.57;8.07;;;;;;;-144.30;81.19;85138.00;5133024;27;20285;-57
2023/06/02 00:45:39;;;;;;;8.88;7.97;;;;;;;-144.30;81.10;85141.97;5133197;27;20611;-57
2023/06/02 00:48:07;;;;;;;16.48;8.32;;;;;;;-144.30;81.31;85132.03;5133180;27;20255;-59
2023/06/02 00:50:34;;;;;;;11.10;8.10;;;;;;;-144.30;80.58;85104.22;5133298;27;20634;-59
2023/06/02 00:53:02;;;;;;;9.77;8.77;;;;;;;-144.30;80.16;85130.06;5132322;27;20194;-58
2023/06/02 00:55:31;;;;;;;8.30;7.55;;;;;;;-144.30;80.09;85116.16;5132825;27;20690;-59
2023/06/02 00:58:03;;;;;;;9.52;7.60;;;;;;;-144.30;80.38;85122.09;5133144;27;20611;-59
2023/06/02 01:00:33;;;;;;;9.40;8.00;;;;;;;-144.30;80.58;85122.09;5132698;27;20250;-56
2023/06/02 01:03:02;;;;;;;10.05;8.98;;;;;;;-144.30;80.83;85132.03;5132493;27;20280;-57
2023/06/02 01:05:30;;;;;;;9.27;8.07;;;;;;;-144.30;80.43;85112.16;5132509;27;20205;-58
2023/06/02 01:08:00;;;;;;;12.55;8.15;;;;;;;-144.30;80.25;85126.09;5132547;27;20218;-58
2023/06/02 01:10:28;;;;;;;9.13;8.23;;;;;;;-144.30;81.60;85128.06;5132511;27;20194;-57
2023/06/02 01:12:56;;;;;;;15.23;8.30;;;;;;;-144.30;82.19;85181.75;5132518;27;20194;-58
2023/06/02 01:15:24;;;;;;;16.08;8.98;;;;;;;-144.30;82.35;85153.91;5132348;27;20726;-58
2023/06/02 01:17:53;;;;;;;18.85;8.82;;;;;;;-144.30;82.74;85134.03;5132738;27;20646;-58
2023/06/02 01:20:22;;;;;;;18.15;9.20;;;;;;;-144.30;83.24;85141.97;5132333;27;20237;-57
2023/06/02 01:23:01;;;;;;;11.30;8.75;;;;;;;-144.30;83.63;85155.91;5132535;27;20691;-57
2023/06/02 01:25:30;;;;;;;9.47;8.23;;;;;;;-144.30;84.21;85130.06;5131982;27;20232;-57
2023/06/02 01:28:02;;;;;;;9.50;8.52;;;;;;;-144.30;84.64;85221.50;5131244;27;20197;-57
2023/06/02 01:30:31;;;;;;;8.88;8.00;;;;;;;-144.30;85.64;85223.47;5132392;27;20194;-58
2023/06/02 01:33:07;;;;;;;16.08;8.40;;;;;;;-144.30;86.50;85209.56;5132129;27;20645;-57
2023/06/02 01:35:44;;;;;;;10.07;8.45;;;;;;;-144.30;86.88;85209.56;5132064;27;20198;-57
2023/06/02 01:38:11;;;;;;;8.80;8.00;;;;;;;-144.30;87.30;85197.66;5131953;27;20197;-57
2023/06/02 01:40:41;;;;;;;9.50;8.48;;;;;;;-144.30;87.01;85235.41;5131810;27;20671;-57
2023/06/02 01:43:09;;;;;;;9.45;8.57;;;;;;;-144.30;86.73;85197.66;5132063;27;20687;-56
2023/06/02 01:45:38;;;;;;;10.17;8.87;;;;;;;-144.30;86.53;85193.66;5131360;27;20200;-57
2023/06/02 01:48:06;;;;;;;8.98;8.00;;;;;;;-144.30;86.42;85183.72;5131595;27;20226;-57
2023/06/02 01:50:36;;;;;;;9.33;8.13;;;;;;;-144.30;86.05;85209.56;5131866;27;20689;-57
2023/06/02 01:53:04;;;;;;;8.67;7.83;;;;;;;-144.30;86.42;85235.41;5131634;27;20190;-57
2023/06/02 01:55:31;;;;;;;11.85;8.20;;;;;;;-144.30;86.32;85161.88;5131615;27;20233;-58
2023/06/02 01:57:59;;;;;;;12.97;8.70;;;;;;;-144.30;86.03;85235.41;5131869;27;20200;-59
2023/06/02 02:00:27;;;;;;;10.07;9.17;;;;;;;-144.30;85.65;85205.59;5131689;27;20194;-59
2023/06/02 02:02:54;;;;;;;9.37;8.57;;;;;;;-144.30;85.66;85267.22;5131746;27;20201;-59
2023/06/02 02:05:21;;;;;;;10.83;8.37;;;;;;;-144.30;85.19;85259.28;5131560;27;20730;-58
2023/06/02 02:07:50;;;;;;;10.97;8.27;;;;;;;-144.30;85.03;85265.22;5131621;27;20214;-58
2023/06/02 02:10:18;;;;;;;8.40;7.80;;;;;;;-144.30;86.08;85157.88;5131817;27;20190;-58
2023/06/02 02:12:44;;;;;;;10.03;7.90;;;;;;;-144.30;86.65;85297.03;5131664;27;20190;-58
2023/06/02 02:15:13;;;;;;;8.73;8.10;;;;;;;-144.30;86.82;85287.09;5131873;27;20586;-59
2023/06/02 02:17:44;;;;;;;9.13;8.33;;;;;;;-144.30;87.09;85249.34;5131490;27;20619;-57
2023/06/02 02:20:13;;;;;;;9.03;8.10;;;;;;;-144.30;87.51;85322.88;5131461;27;20193;-57
2023/06/02 02:22:41;;;;;;;11.47;8.60;;;;;;;-144.30;87.66;85281.13;5131460;27;20194;-56
2023/06/02 02:25:08;;;;;;;9.70;8.77;;;;;;;-144.30;87.83;85275.16;5131456;27;20636;-57
2023/06/02 02:27:36;;;;;;;9.43;8.30;;;;;;;-144.30;87.63;85277.16;5131397;27;20213;-58
2023/06/02 02:30:04;;;;;;;13.23;9.47;;;;;;;-144.30;87.51;85281.13;5131455;27;20194;-57
2023/06/02 02:32:35;;;;;;;10.10;8.67;;;;;;;-144.30;87.06;85265.22;5131145;27;20657;-57
2023/06/02 02:35:02;;;;;;;11.50;9.50;;;;;;;-144.30;86.40;85275.16;5131486;27;20576;-57
2023/06/02 02:37:29;;;;;;;11.03;9.03;;;;;;;-144.30;86.21;85253.31;5131085;27;20201;-57
2023/06/02 02:39:56;;;;;;;9.07;7.97;;;;;;;-144.30;85.89;85273.19;5130734;27;20197;-58
2023/06/02 02:42:23;;;;;;;9.23;8.43;;;;;;;-144.30;85.53;85237.41;5131027;27;20619;-58
2023/06/02 02:44:50;;;;;;;9.57;8.60;;;;;;;-144.30;85.34;85301.00;5131294;27;20576;-59
2023/06/02 02:47:17;;;;;;;10.77;8.80;;;;;;;-144.30;85.51;85306.97;5130926;27;20629;-59
2023/06/02 02:49:46;;;;;;;10.83;9.10;;;;;;;-144.30;85.54;85297.03;5131489;27;20189;-59
2023/06/02 02:52:13;;;;;;;12.73;9.30;;;;;;;-144.30;86.63;85314.94;5131374;27;20311;-58
2023/06/02 02:54:40;;;;;;;15.70;8.47;;;;;;;-144.30;86.98;85332.81;5131090;27;20198;-57
2023/06/02 02:57:08;;;;;;;9.83;8.83;;;;;;;-144.30;87.48;85271.19;5131082;27;20193;-57
2023/06/02 02:59:35;;;;;;;13.50;9.00;;;;;;;-144.30;87.79;85308.97;5130709;27;20198;-57
2023/06/02 03:02:03;;;;;;;10.27;8.40;;;;;;;-144.30;87.89;85305.00;5131002;27;20289;-57
2023/06/02 03:04:31;;;;;;;9.60;8.63;;;;;;;-144.30;87.89;85320.91;5131147;27;20220;-57
2023/06/02 03:07:01;;;;;;;10.50;9.40;;;;;;;-144.30;87.34;85336.78;5130712;27;20602;-57
2023/06/02 03:09:28;;;;;;;9.47;8.40;;;;;;;-144.30;87.42;85318.91;5130892;27;20194;-57
2023/06/02 03:11:57;;;;;;;11.03;9.90;;;;;;;-144.30;88.18;85344.75;5130610;27;20273;-58
2023/06/02 03:14:26;;;;;;;10.93;9.33;;;;;;;-144.30;88.07;85320.91;5130945;27;20293;-59
2023/06/02 03:16:53;;;;;;;10.70;8.90;;;;;;;-144.30;87.92;85305.00;5131144;27;20198;-59
2023/06/02 03:19:23;;;;;;;10.07;9.27;;;;;;;-144.30;87.59;85316.91;5131264;27;20194;-57
2023/06/02 03:21:51;;;;;;;9.63;8.83;;;;;;;-144.30;87.01;85310.94;5130850;27;20198;-57
2023/06/02 03:24:20;;;;;;;13.20;8.50;;;;;;;-144.30;86.30;85281.13;5130843;27;20226;-57
2023/06/02 03:26:48;;;;;;;13.43;9.77;;;;;;;-144.30;86.39;85306.97;5130552;27;20599;-57
2023/06/02 03:29:15;;;;;;;11.23;8.53;;;;;;;-144.30;85.64;85291.06;5130889;27;20561;-57
2023/06/02 03:31:42;;;;;;;11.37;8.93;;;;;;;-144.30;85.13;85255.28;5130593;27;20285;-57
2023/06/02 03:34:09;;;;;;;10.07;9.20;;;;;;;-144.30;84.77;85269.22;5130841;27;20683;-59
2023/06/02 03:36:37;;;;;;;10.13;8.93;;;;;;;-144.30;84.84;85259.28;5130947;27;20194;-59
2023/06/02 03:39:05;;;;;;;12.47;8.53;;;;;;;-144.30;84.37;85245.34;5130487;27;20629;-59
2023/06/02 03:41:35;;;;;;;10.93;8.57;;;;;;;-144.30;83.11;85247.34;5130658;27;20198;-58
2023/06/02 03:44:02;;;;;;;10.47;8.77;;;;;;;-144.30;83.46;85257.28;5130872;27;20271;-58
2023/06/02 03:46:29;;;;;;;10.63;9.57;;;;;;;-144.30;83.10;85249.34;5130817;27;20740;-58
2023/06/02 03:48:56;;;;;;;12.18;9.82;;;;;;;-144.30;81.90;85197.66;5130416;27;20193;-59
2023/06/02 03:51:23;;;;;;;11.15;8.90;;;;;;;-144.30;78.01;85030.66;5131072;27;20219;-58
2023/06/02 03:53:50;;;;;;;10.15;9.13;;;;;;;-144.30;71.79;84915.38;5134086;27;20201;-59
2023/06/02 03:56:17;;;;;;;12.82;9.20;;;;;;;-144.30;63.89;84688.81;5113946;27;20222;-59
2023/06/02 03:58:46;;;;;;;8.45;7.53;;;;;;;-144.30;57.04;84396.66;5115829;27;20255;-59
2023/06/02 04:01:13;;;;;;;9.75;7.35;;;;;;;-144.30;51.18;84223.75;5133126;27;20200;-60
2023/06/02 04:03:41;;;;;;;10.32;7.65;;;;;;;-144.30;47.66;84029.00;5130110;27;20204;-60
2023/06/02 04:06:09;;;;;;;10.55;7.68;;;;;;;-144.30;43.77;83852.16;5131915;27;20220;-60
2023/06/02 04:08:36;;;;;;;9.85;7.80;;;;;;;-144.30;41.86;83661.41;5132980;27;20600;-59
2023/06/02 04:11:03;;;;;;;7.90;7.20;;;;;;;-144.30;40.04;83520.31;5130987;27;20262;-60
2023/06/02 04:13:30;;;;;;;8.80;8.00;;;;;;;-144.30;38.39;83333.56;5133347;27;20198;-59
2023/06/02 04:15:59;;;;;;;10.25;7.70;;;;;;;-144.30;37.45;83262.03;5133279;27;20202;-59
2023/06/02 04:18:27;;;;;;;10.45;7.88;;;;;;;-144.30;37.01;83264.03;5134153;27;20194;-59
2023/06/02 04:20:54;;;;;;;11.43;7.93;;;;;;;-144.30;36.68;83244.16;5134293;27;20194;-60
2023/06/02 04:23:21;;;;;;;8.32;7.38;;;;;;;-144.30;36.18;83178.59;5133637;27;20194;-58
2023/06/02 04:25:47;;;;;;;10.77;7.85;;;;;;;-144.30;35.83;83091.19;5133472;27;20194;-58
2023/06/02 04:28:15;;;;;;;10.07;7.43;;;;;;;-144.30;34.08;82840.88;5133399;27;20225;-60
2023/06/02 04:30:42;;;;;;;8.45;7.40;;;;;;;-144.30;32.95;82636.28;5133318;27;20244;-58
2023/06/02 04:33:12;;;;;;;9.23;7.18;;;;;;;-144.30;31.95;82453.56;5133399;27;20239;-57
2023/06/02 04:35:39;;;;;;;11.13;8.30;;;;;;;-144.30;31.57;82384.03;5133004;27;25114;-58
2023/06/02 04:38:07;;;;;;;12.18;8.23;;;;;;;-144.30;31.22;82391.97;5133525;27;20729;-58
2023/06/02 04:40:37;;;;;;;12.48;8.82;;;;;;;-144.30;30.93;82332.38;5133263;27;20194;-58
2023/06/02 04:43:04;;;;;;;10.05;6.95;;;;;;;-144.30;31.00;82260.88;5133173;27;20198;-58
2023/06/02 04:45:31;;;;;;;9.23;7.20;;;;;;;-144.30;30.24;82209.25;5133239;27;20194;-58
2023/06/02 04:47:58;;;;;;;7.10;6.47;;;;;;;-144.30;30.11;82084.13;5132820;27;20654;-60
2023/06/02 04:50:27;;;;;;;7.78;6.97;;;;;;;-144.30;29.93;82189.38;5133005;27;20194;-58
2023/06/02 04:52:54;;;;;;;7.60;6.30;;;;;;;-144.30;29.99;82187.41;5133005;27;20288;-58
2023/06/02 04:55:21;;;;;;;7.60;6.45;;;;;;;-144.30;30.17;82248.97;5132987;27;20281;-58
2023/06/02 04:57:48;;;;;;;8.25;6.00;;;;;;;-144.30;29.84;82044.41;5132922;27;20684;-59
2023/06/02 05:00:15;;;;;;;6.47;6.03;;;;;;;-144.30;29.58;82143.72;5132906;27;20229;-59
2023/06/02 05:02:42;;;;;;;8.32;6.07;;;;;;;-144.30;29.78;82185.41;5132505;27;20197;-59
2023/06/02 05:05:10;;;;;;;7.18;5.85;;;;;;;-144.30;30.35;82288.69;5132949;27;20190;-59
2023/06/02 05:07:38;;;;;;;6.38;5.78;;;;;;;-144.30;30.15;82169.53;5132652;27;20226;-59
2023/06/02 05:10:06;;;;;;;7.22;6.53;;;;;;;-144.30;29.99;82133.78;5132655;27;20206;-59
2023/06/02 05:12:33;;;;;;;6.75;6.25;;;;;;;-144.30;29.64;82088.09;5132650;27;20213;-58
2023/06/02 05:15:00;;;;;;;11.70;7.15;;;;;;;-144.30;29.09;81891.50;5132640;27;20200;-59
2023/06/02 05:17:28;;;;;;;6.88;6.28;;;;;;;-144.30;28.86;81796.16;5132868;27;20586;-59
2023/06/02 05:19:55;;;;;;;7.55;6.45;;;;;;;-144.30;28.25;81637.31;5132745;27;20631;-58
2023/06/02 05:22:22;;;;;;;6.65;6.10;;;;;;;-144.30;28.20;81679.00;5132606;27;20193;-59
2023/06/02 05:24:50;;;;;;;9.30;6.25;;;;;;;-144.30;28.59;81800.13;5132492;27;20204;-59
2023/06/02 05:27:17;;;;;;;9.85;5.88;;;;;;;-144.30;28.54;81673.03;5132408;27;20244;-59
2023/06/02 05:29:44;;;;;;;11.82;5.97;;;;;;;-144.30;28.27;81659.16;5132068;27;20199;-59
2023/06/02 05:32:11;;;;;;;11.43;6.10;;;;;;;-144.30;28.49;81669.06;5132361;27;20197;-59
2023/06/02 05:34:39;;;;;;;10.05;5.70;;;;;;;-144.30;28.13;81653.19;5132058;27;20196;-59
2023/06/02 05:37:06;;;;;;;9.75;6.45;;;;;;;-144.30;28.53;81688.94;5132304;27;20670;-59
2023/06/02 05:39:33;;;;;;;6.95;6.35;;;;;;;-144.30;28.63;81804.09;5132157;27;20294;-58
2023/06/02 05:42:01;;;;;;;8.48;7.65;;;;;;;-144.30;29.59;82042.41;5132098;27;20198;-58
2023/06/02 05:44:28;;;;;;;7.25;6.43;;;;;;;-144.30;30.27;82286.72;5131979;27;20198;-58
2023/06/02 05:46:55;;;;;;;6.88;6.30;;;;;;;-144.30;30.83;82346.28;5130373;27;20236;-59
2023/06/02 05:49:23;;;;;;;6.28;5.70;;;;;;;-144.30;30.53;82250.97;5114482;27;20208;-58
2023/06/02 05:51:50;;;;;;;6.50;5.97;;;;;;;-144.30;30.37;82179.47;5111592;28;20579;-58
2023/06/02 05:54:17;;;;;;;6.32;5.68;;;;;;;-144.30;30.45;82225.13;5111337;28;20585;-57
2023/06/02 05:56:44;;;;;;;8.18;6.60;;;;;;;-144.30;30.52;82248.97;5110972;28;20201;-58
2023/06/02 05:59:12;;;;;;;7.25;6.65;;;;;;;-144.30;30.43;82256.91;5111055;28;20186;-58
2023/06/02 06:01:39;;;;;;;6.20;5.80;;;;;;;-144.30;31.13;82376.09;5111211;28;20199;-58
2023/06/02 06:04:06;;;;;;;6.55;6.05;;;;;;;-144.30;30.81;82304.59;5111304;28;20667;-59
2023/06/02 06:06:32;;;;;;;8.15;6.43;;;;;;;-144.30;30.33;82169.53;5111305;28;20563;-59
2023/06/02 06:08:59;;;;;;;8.32;6.35;;;;;;;-144.30;30.84;82320.47;5111044;28;20241;-58
2023/06/02 06:11:26;;;;;;;9.73;6.95;;;;;;;-144.30;30.91;82334.38;5110733;28;20228;-59
2023/06/02 06:13:53;;;;;;;7.70;6.95;;;;;;;-144.30;30.91;82336.38;5110612;28;20198;-58
2023/06/02 06:16:21;;;;;;;7.07;6.57;;;;;;;-144.30;31.06;82429.72;5110803;28;20199;-59
2023/06/02 06:18:48;;;;;;;7.30;6.63;;;;;;;-144.30;31.03;82310.53;5111150;28;20672;-59
2023/06/02 06:21:15;;;;;;;10.55;9.70;;;;;;;-144.30;31.08;82423.75;5111869;28;20250;-58
2023/06/02 06:23:42;;;;;;;12.90;8.07;;;;;;;-144.30;31.58;82550.88;5111506;28;20205;-59
2023/06/02 06:26:09;;;;;;;13.45;7.95;;;;;;;-144.30;31.82;82503.22;5110725;28;20201;-59
2023/06/02 06:28:36;;;;;;;10.75;8.15;;;;;;;-144.30;32.03;82531.00;5110475;28;20265;-59
2023/06/02 06:31:03;;;;;;;7.03;6.43;;;;;;;-144.30;32.15;82608.47;5111304;28;20743;-59
2023/06/02 06:33:31;;;;;;;7.45;6.95;;;;;;;-144.30;32.50;82670.06;5110683;28;20217;-59
2023/06/02 06:35:58;;;;;;;10.40;7.70;;;;;;;-144.30;32.87;82725.69;5110776;28;20199;-58
2023/06/02 06:38:25;;;;;;;8.80;7.30;;;;;;;-144.30;32.73;82711.78;5110422;28;20194;-58
2023/06/02 06:40:52;;;;;;;7.72;7.13;;;;;;;-144.30;33.15;82763.41;5110838;28;20676;-58
2023/06/02 06:43:19;;;;;;;7.97;7.25;;;;;;;-144.30;33.06;82739.56;5110644;28;20197;-58
2023/06/02 06:45:46;;;;;;;9.07;6.82;;;;;;;-144.30;33.24;82783.28;5110499;28;20675;-59
2023/06/02 06:48:13;;;;;;;10.30;8.02;;;;;;;-144.30;33.23;82719.72;5110472;28;20242;-58
2023/06/02 06:50:43;;;;;;;10.73;6.93;;;;;;;-144.30;33.62;82785.28;5110931;28;20199;-59
2023/06/02 06:53:11;;;;;;;10.05;7.53;;;;;;;-144.30;33.44;82795.19;5110613;28;20213;-58
2023/06/02 06:55:38;;;;;;;8.02;7.22;;;;;;;-144.30;33.29;82753.50;5110641;28;20190;-59
2023/06/02 06:58:05;;;;;;;9.23;7.30;;;;;;;-144.30;33.62;82687.94;5110725;28;20209;-58
2023/06/02 07:00:32;;;;;;;16.13;7.72;;;;;;;-144.30;33.22;82693.88;5110352;28;20592;-59
2023/06/02 07:02:59;;;;;;;9.00;7.65;;;;;;;-144.30;33.36;82813.06;5110255;28;20290;-59
2023/06/02 07:05:26;;;;;;;10.27;6.80;;;;;;;-144.30;33.28;82709.78;5123894;28;20201;-57
2023/06/02 07:07:54;;;;;;;7.25;6.63;;;;;;;-144.30;32.62;82713.75;5129951;28;20217;-58
2023/06/02 07:10:21;;;;;;;7.93;6.32;;;;;;;-144.30;32.50;82691.91;5127595;28;20197;-58
2023/06/02 07:12:51;;;;;;;7.28;6.68;;;;;;;-144.30;32.17;82737.59;5130603;28;20194;-59
2023/06/02 07:15:18;;;;;;;7.65;6.88;;;;;;;-144.30;32.29;82715.75;5129455;28;20186;-58
2023/06/02 07:17:45;;;;;;;6.03;5.53;;;;;;;-144.30;32.03;82763.41;5129820;28;20192;-58
2023/06/02 07:20:13;;;;;;;12.05;6.60;;;;;;;-144.30;31.66;82803.16;5129743;28;20198;-57
2023/06/02 07:22:40;;;;;;;7.40;6.72;;;;;;;-144.30;32.49;82995.84;5129930;28;20204;-59
2023/06/02 07:25:10;;;;;;;30.42;8.30;;;;;;;-144.30;32.80;82892.53;5130388;27;20189;-59
2023/06/02 07:27:36;;;;;;;7.38;6.63;;;;;;;-144.30;32.55;82862.75;5132500;27;20197;-59
2023/06/02 07:30:05;;;;;;;8.52;6.95;;;;;;;-144.30;32.97;82864.72;5134078;27;20196;-59
2023/06/02 07:32:32;;;;;;;13.63;6.97;;;;;;;-144.30;32.73;82836.91;5134151;27;20209;-58
2023/06/02 07:34:59;;;;;;;25.17;8.27;;;;;;;-144.30;32.18;82689.91;5133731;27;20190;-59
2023/06/02 07:37:26;;;;;;;56.78;10.93;;;;;;;-144.30;32.00;82594.56;5134042;27;20198;-59
2023/06/02 07:39:53;;;;;;;10.38;6.50;;;;;;;-144.30;31.30;82600.53;5134412;27;20209;-59
2023/06/02 07:42:21;;;;;;;9.45;6.68;;;;;;;-144.30;31.31;82558.81;5134266;27;20194;-59
2023/06/02 07:44:48;;;;;;;10.50;6.60;;;;;;;-144.30;30.87;82507.19;5134206;27;20190;-58
2023/06/02 07:47:15;;;;;;;20.67;6.90;;;;;;;-144.30;30.60;82433.69;5133768;27;20302;-58
2023/06/02 07:49:43;;;;;;;7.38;6.70;;;;;;;-144.30;29.72;82370.13;5134025;27;20222;-58
2023/06/02 07:52:10;;;;;;;7.10;6.05;;;;;;;-144.30;29.75;82328.41;5134455;27;20200;-58
2023/06/02 07:54:37;;;;;;;9.25;6.10;;;;;;;-144.30;29.67;82276.78;5134323;27;20578;-58
2023/06/02 07:57:04;;;;;;;11.25;6.18;;;;;;;-144.30;29.54;82330.41;5134237;27;20285;-58
2023/06/02 07:59:32;;;;;;;8.10;6.75;;;;;;;-144.30;29.60;82314.50;5130605;27;20218;-59
2023/06/02 08:01:59;;;;;;;7.13;5.97;;;;;;;-144.30;29.17;82391.97;5133043;27;20228;-59
2023/06/02 08:04:27;;;;;;;10.23;7.35;;;;;;;-144.30;29.87;82419.78;5133264;27;20222;-58
2023/06/02 08:06:55;;;;;;;10.95;6.15;;;;;;;-144.30;29.68;82296.63;5132734;27;20217;-59
2023/06/02 08:09:23;;;;;;;10.68;5.88;;;;;;;-144.30;29.41;82304.59;5133473;27;20225;-58
2023/06/02 08:11:50;;;;;;;13.38;6.30;;;;;;;-144.30;29.43;82229.09;5133268;27;20261;-59
2023/06/02 08:14:17;;;;;;;9.18;6.25;;;;;;;-144.30;29.46;82296.63;5133242;27;20480;-59
2023/06/02 08:16:45;;;;;;;12.60;6.85;;;;;;;-144.30;29.24;82246.97;5133261;27;20240;-58
2023/06/02 08:19:12;;;;;;;9.90;6.82;;;;;;;-144.30;29.19;82195.34;5133161;27;20225;-58
2023/06/02 08:21:41;;;;;;;8.18;7.07;;;;;;;-144.30;29.07;82213.22;5130990;27;20221;-58
2023/06/02 08:24:08;;;;;;;12.20;7.20;;;;;;;-144.30;29.46;82276.78;5133266;27;20229;-59
2023/06/02 08:26:39;;;;;;;8.52;5.88;;;;;;;-144.30;29.50;82213.22;5129889;27;20221;-58
2023/06/02 08:29:08;;;;;;;7.65;6.95;;;;;;;-144.30;30.16;82395.94;5128430;27;20295;-58
2023/06/02 08:31:39;;;;;;;8.13;5.95;;;;;;;-144.30;29.31;82328.41;5113139;28;20287;-58
2023/06/02 08:34:08;;;;;;;6.25;5.80;;;;;;;-144.30;29.48;82332.38;5112427;27;20215;-58
2023/06/02 08:36:35;;;;;;;14.38;6.95;;;;;;;-144.30;29.70;82433.69;5132358;27;20214;-58
2023/06/02 08:39:06;;;;;;;10.55;7.10;;;;;;;-144.30;30.53;82594.56;5132280;27;20217;-59
2023/06/02 08:41:38;;;;;;;14.63;7.07;;;;;;;-144.30;30.95;82592.59;5132976;27;20280;-59
2023/06/02 08:44:05;;;;;;;7.50;5.90;;;;;;;-144.30;31.54;82606.50;5132598;27;20273;-58
2023/06/02 08:46:32;;;;;;;9.82;6.45;;;;;;;-144.30;32.41;82646.22;5132714;27;20750;-58
2023/06/02 08:49:01;;;;;;;10.20;6.90;;;;;;;-144.30;32.15;82755.47;5132102;27;20225;-58
2023/06/02 08:51:35;;;;;;;9.80;7.63;;;;;;;-144.30;32.09;82709.78;5131749;27;20217;-59
2023/06/02 08:54:03;;;;;;;9.02;7.22;;;;;;;-144.30;32.68;82773.34;5132000;27;20999;-59
2023/06/02 08:56:30;;;;;;;9.35;7.18;;;;;;;-144.30;32.20;82783.28;5132587;27;20221;-59
2023/06/02 08:58:57;;;;;;;7.18;6.47;;;;;;;-144.30;31.84;82842.88;5139332;27;20617;-59
2023/06/02 09:01:24;;;;;;;6.57;6.07;;;;;;;-144.30;32.23;82950.16;5132301;27;20319;-59
2023/06/02 09:03:51;;;;;;;6.45;5.70;;;;;;;-144.30;32.68;83317.66;5132440;27;20302;-59
2023/06/02 09:06:22;;;;;;;17.70;6.15;;;;;;;-144.30;32.44;83037.56;5131802;27;20202;-59
2023/06/02 09:08:58;;;;;;;7.97;6.75;;;;;;;-144.30;32.82;83031.59;5131953;27;20228;-59
2023/06/02 09:11:25;;;;;;;6.65;6.03;;;;;;;-144.30;32.79;83011.72;5132729;27;20238;-59
2023/06/02 09:13:53;;;;;;;7.47;6.80;;;;;;;-144.30;32.35;82914.38;5132517;27;20233;-59
2023/06/02 09:16:21;;;;;;;10.18;6.80;;;;;;;-144.30;32.43;83005.78;5132597;27;20205;-58
2023/06/02 09:18:59;;;;;;;15.20;6.65;;;;;;;-144.30;32.84;83087.22;5132195;27;20224;-59
2023/06/02 09:21:27;;;;;;;8.60;6.65;;;;;;;-144.30;33.50;83146.81;5132368;27;20207;-58
2023/06/02 09:23:56;;;;;;;7.13;6.53;;;;;;;-144.30;33.00;83115.03;5132373;27;20189;-59
2023/06/02 09:26:25;;;;;;;6.88;6.18;;;;;;;-144.30;33.15;83206.41;5132414;27;20213;-57
2023/06/02 09:29:03;;;;;;;6.07;5.55;;;;;;;-144.30;32.29;83186.56;5131985;27;20213;-57
2023/06/02 09:31:44;;;;;;;6.18;5.57;;;;;;;-144.30;31.18;83154.75;5132452;27;20233;-58
2023/06/02 09:34:11;;;;;;;5.85;5.45;;;;;;;-144.30;30.88;83190.53;5131890;27;20199;-58
2023/06/02 09:36:38;;;;;;;6.15;5.57;;;;;;;-144.30;31.05;83103.13;5131960;27;20205;-58
2023/06/02 09:39:10;;;;;;;5.80;5.30;;;;;;;-144.30;30.64;83085.22;5131817;27;20200;-58
2023/06/02 09:41:38;;;;;;;9.98;5.80;;;;;;;-144.30;30.57;83146.81;5131908;27;20294;-58
2023/06/02 09:44:12;;;;;;;6.88;6.18;;;;;;;-144.30;31.40;83075.31;5131726;27;20217;-59
2023/06/02 09:46:44;;;;;;;7.20;6.00;;;;;;;-144.30;30.89;83192.50;5131699;27;20239;-58
2023/06/02 09:49:12;;;;;;;8.18;5.88;;;;;;;-144.30;30.51;83170.66;5129236;27;20262;-59
2023/06/02 09:51:39;;;;;;;13.98;6.45;;;;;;;-144.30;32.36;83202.44;5127844;27;20235;-59
2023/06/02 09:54:08;;;;;;;9.50;6.63;;;;;;;-144.30;33.09;83504.44;5131476;27;20727;-58
2023/06/02 09:56:38;;;;;;;10.77;7.38;;;;;;;-144.30;33.38;83138.88;5128614;27;20637;-59
2023/06/02 09:59:06;;;;;;;7.53;6.85;;;;;;;-144.30;32.94;83190.53;5131185;27;20252;-58
2023/06/02 10:01:33;;;;;;;7.97;7.05;;;;;;;-144.30;32.61;83172.66;5131118;27;20204;-59
2023/06/02 10:04:01;;;;;;;7.18;6.47;;;;;;;-144.30;32.71;83130.94;5131450;27;20588;-60
2023/06/02 10:06:49;;;;;;;8.30;6.60;;;;;;;-144.30;32.46;83107.09;5131048;27;20239;-59
2023/06/02 10:09:30;;;;;;;9.20;6.18;;;;;;;-144.30;32.24;83164.69;5131345;27;20664;-57
2023/06/02 10:12:18;;;;;;;7.65;5.50;;;;;;;-144.30;31.93;83250.13;5128477;27;20252;-58
2023/06/02 10:15:07;;;;;;;8.95;6.22;;;;;;;-144.30;31.88;83301.78;5124382;27;20228;-58
2023/06/02 10:17:45;;;;;;;6.63;5.50;;;;;;;-144.30;31.73;83361.38;5129336;27;20311;-58
2023/06/02 10:20:27;;;;;;;6.60;5.32;;;;;;;-144.30;31.60;83381.25;5130220;27;20187;-58
2023/06/02 10:23:22;;;;;;;6.68;5.20;;;;;;;-144.30;32.53;83389.19;5131011;27;20283;-57
2023/06/02 10:26:09;;;;;;;6.35;4.88;;;;;;;-144.30;32.71;83444.81;5131112;27;20204;-57
2023/06/02 10:28:37;;;;;;;6.32;5.70;;;;;;;-144.30;32.08;83436.88;5130242;27;20198;-58
2023/06/02 10:31:08;;;;;;;5.30;4.90;;;;;;;-144.30;32.36;83385.22;5130376;27;20269;-57
2023/06/02 10:33:45;;;;;;;5.97;4.90;;;;;;;-144.30;32.63;83417.00;5130510;27;20276;-59
2023/06/02 10:36:13;;;;;;;6.30;5.85;;;;;;;-144.30;33.14;83456.75;5128736;27;20232;-58
2023/06/02 10:38:41;;;;;;;5.78;5.38;;;;;;;-144.30;33.07;83464.69;5130775;27;20272;-59
2023/06/02 10:41:09;;;;;;;6.38;5.65;;;;;;;-144.30;33.25;83450.78;5127879;27;20281;-58
2023/06/02 10:43:36;;;;;;;8.65;5.43;;;;;;;-144.30;33.74;83474.63;5130454;27;20198;-59
2023/06/02 10:46:20;;;;;;;5.68;5.28;;;;;;;-144.30;33.70;83536.22;5130382;27;20683;-58
2023/06/02 10:48:47;;;;;;;5.72;5.32;;;;;;;-144.30;33.83;83554.09;5130301;27;20304;-58
2023/06/02 10:51:14;;;;;;;7.43;5.93;;;;;;;-144.30;33.83;83518.34;5130801;27;20667;-59
2023/06/02 10:54:16;;;;;;;6.18;5.53;;;;;;;-144.30;33.94;83583.91;5130598;27;20198;-58
2023/06/02 10:56:47;;;;;;;9.45;5.60;;;;;;;-144.30;33.69;83572.00;5112605;28;20229;-59
2023/06/02 10:59:36;;;;;;;5.90;5.50;;;;;;;-144.30;33.99;83556.09;5130421;28;20188;-58
2023/06/02 11:02:03;;;;;;;8.90;5.43;;;;;;;-144.30;34.06;83538.22;5133315;27;20229;-58
2023/06/02 11:04:34;;;;;;;8.52;5.15;;;;;;;-144.30;33.48;83564.03;5134684;27;20639;-58
2023/06/02 11:07:15;;;;;;;8.43;5.53;;;;;;;-144.30;33.77;83583.91;5134732;27;20560;-59
2023/06/02 11:09:43;;;;;;;7.10;5.30;;;;;;;-144.30;33.60;83448.81;5133270;27;20217;-58
2023/06/02 11:12:12;;;;;;;7.07;5.05;;;;;;;-144.30;33.23;83468.66;5131721;27;20186;-58
2023/06/02 11:15:13;;;;;;;6.85;4.78;;;;;;;-144.30;32.90;83452.78;5134262;27;20190;-58
2023/06/02 11:17:40;;;;;;;5.30;4.97;;;;;;;-144.30;32.73;83436.88;5132747;27;20666;-59
2023/06/02 11:20:08;;;;;;;6.28;4.85;;;;;;;-144.30;32.73;83417.00;5134488;27;20186;-58
2023/06/02 11:22:36;;;;;;;7.55;5.20;;;;;;;-144.30;32.34;83464.69;5134187;27;20196;-59